createdAt,value
2022-10-14T00:03:54.062Z,21.20
2022-10-14T00:08:57.682Z,20.38
2022-10-14T00:14:04.039Z,20.52
2022-10-14T00:19:07.867Z,20.98
2022-10-14T00:24:12.713Z,22.63
2022-10-14T00:29:18.883Z,24.35
2022-10-14T00:34:21.468Z,16.63
2022-10-14T00:39:23.742Z,23.75
2022-10-14T00:44:26.122Z,23.33
2022-10-14T00:49:32.747Z,23.85
2022-10-14T00:54:56.458Z,17.97
2022-10-14T01:00:11.108Z,25.17
2022-10-14T01:05:15.522Z,24.10
2022-10-14T01:10:41.654Z,26.05
2022-10-14T01:16:16.348Z,25.27
2022-10-14T01:21:31.850Z,25.38
2022-10-14T01:26:43.081Z,24.65
2022-10-14T01:32:07.953Z,29.27
2022-10-14T01:37:14.846Z,31.35
2022-10-14T01:42:23.452Z,25.38
2022-10-14T01:52:35.031Z,24.80
2022-10-14T01:57:42.468Z,27.45
2022-10-14T02:02:44.940Z,25.58
2022-10-14T02:07:50.922Z,28.90
2022-10-14T02:13:02.113Z,30.38
2022-10-14T02:18:15.710Z,29.25
2022-10-14T02:23:21.788Z,30.63
2022-10-14T02:28:26.776Z,30.40
2022-10-14T02:33:37.666Z,29.75
2022-10-14T02:38:43.750Z,31.58
2022-10-14T02:43:46.494Z,31.23
2022-10-14T02:48:49.935Z,31.35
2022-10-14T02:53:52.396Z,33.78
2022-10-14T02:58:54.769Z,31.48
2022-10-14T03:03:58.658Z,31.15
2022-10-14T03:09:01.090Z,30.35
2022-10-14T03:14:06.925Z,32.70
2022-10-14T03:19:09.451Z,35.95
2022-10-14T03:24:19.634Z,32.15
2022-10-14T03:29:26.805Z,31.08
2022-10-14T03:34:36.020Z,32.40
2022-10-14T03:39:42.125Z,29.98
2022-10-14T03:44:45.139Z,30.55
2022-10-14T03:49:58.499Z,31.55
2022-10-14T03:55:10.889Z,30.70
2022-10-14T04:00:16.224Z,33.03
2022-10-14T04:05:18.562Z,31.98
2022-10-14T04:10:24.350Z,31.23
2022-10-14T04:15:29.560Z,32.03
2022-10-14T04:20:55.135Z,34.10
2022-10-14T04:26:04.453Z,37.03
2022-10-14T04:31:07.200Z,24.90
2022-10-14T04:36:21.621Z,31.80
2022-10-14T04:41:24.832Z,34.40
2022-10-14T04:46:28.455Z,32.22
2022-10-14T04:51:31.560Z,34.30
2022-10-14T04:56:45.524Z,33.15
2022-10-14T05:01:48.280Z,36.65
2022-10-14T05:06:51.330Z,38.67
2022-10-14T05:11:55.062Z,36.67
2022-10-14T05:17:05.527Z,33.75
2022-10-14T05:22:09.359Z,34.92
2022-10-14T05:27:17.133Z,36.83
2022-10-14T05:32:20.597Z,38.13
2022-10-14T05:37:26.340Z,36.00
2022-10-14T05:42:30.696Z,27.52
2022-10-14T05:47:34.481Z,37.80
2022-10-14T05:52:46.311Z,30.20
2022-10-14T05:57:58.025Z,32.78
2022-10-14T06:03:06.175Z,36.90
2022-10-14T06:08:09.153Z,37.55
2022-10-14T06:13:14.395Z,34.42
2022-10-14T06:18:20.444Z,25.20
2022-10-14T06:23:23.358Z,30.75
2022-10-14T06:28:26.605Z,29.35
2022-10-14T06:33:32.847Z,29.33
2022-10-14T06:38:35.239Z,32.40
2022-10-14T06:43:38.169Z,36.50
2022-10-14T06:48:41.481Z,31.50
2022-10-14T06:53:43.877Z,31.67
2022-10-14T06:58:46.179Z,30.38
2022-10-14T07:03:51.681Z,28.33
2022-10-14T07:08:56.612Z,31.90
2022-10-14T07:13:59.387Z,30.05
2022-10-14T07:19:01.717Z,31.05
2022-10-14T07:24:04.070Z,32.63
2022-10-14T07:29:06.755Z,34.78
2022-10-14T07:34:09.459Z,30.35
2022-10-14T07:39:11.954Z,33.60
2022-10-14T07:44:15.918Z,31.75
2022-10-14T07:49:20.598Z,38.45
2022-10-14T07:54:25.493Z,34.85
2022-10-14T07:59:27.865Z,31.15
2022-10-14T08:04:30.367Z,35.33
2022-10-14T08:09:36.677Z,33.63
2022-10-14T08:14:39.232Z,30.70
2022-10-14T08:19:41.551Z,37.28
2022-10-14T08:24:44.484Z,31.98
2022-10-14T08:29:46.779Z,38.63
2022-10-14T08:34:49.182Z,39.22
2022-10-14T08:39:51.442Z,37.15
2022-10-14T08:45:00.171Z,39.45
2022-10-14T08:50:11.040Z,34.35
2022-10-14T08:55:36.939Z,38.50
2022-10-14T09:00:42.298Z,34.17
2022-10-14T09:05:44.984Z,34.40
2022-10-14T09:10:47.444Z,38.78
2022-10-14T09:15:55.643Z,33.30
2022-10-14T09:20:58.524Z,33.10
2022-10-14T09:26:12.711Z,33.15
2022-10-14T09:31:15.265Z,32.88
2022-10-14T09:36:22.129Z,37.40
2022-10-14T09:41:29.004Z,30.60
2022-10-14T09:46:31.376Z,30.95
2022-10-14T09:51:34.668Z,34.97
2022-10-14T09:56:42.087Z,36.67
2022-10-14T10:07:34.527Z,29.90
2022-10-14T10:12:37.064Z,32.28
2022-10-14T10:17:40.876Z,31.95
2022-10-14T10:22:43.533Z,34.95
2022-10-14T10:27:48.006Z,35.42
2022-10-14T10:33:02.182Z,37.47
2022-10-14T10:38:23.383Z,34.50
2022-10-14T10:43:42.678Z,30.42
2022-10-14T10:49:07.942Z,34.35
2022-10-14T10:54:16.346Z,33.78
2022-10-14T10:59:52.192Z,35.08
2022-10-14T11:05:00.953Z,29.88
2022-10-14T11:10:43.005Z,28.52
2022-10-14T11:16:27.671Z,28.05
2022-10-14T11:21:55.743Z,29.10
2022-10-14T11:32:17.528Z,28.63
2022-10-14T11:37:30.338Z,28.02
2022-10-14T11:42:54.473Z,28.70
2022-10-14T11:48:11.154Z,28.92
2022-10-14T11:53:19.399Z,29.03
2022-10-14T11:58:26.154Z,28.25
2022-10-14T12:04:07.018Z,22.07
2022-10-14T12:09:31.669Z,32.28
2022-10-14T12:14:52.470Z,30.48
2022-10-14T12:19:54.931Z,29.15
2022-10-14T12:25:04.560Z,29.95
2022-10-14T12:30:37.487Z,29.17
2022-10-14T12:35:48.835Z,26.58
2022-10-14T12:40:52.912Z,29.92
2022-10-14T12:46:04.434Z,25.75
2022-10-14T12:51:16.666Z,25.92
2022-10-14T12:56:54.733Z,25.67
2022-10-14T13:01:59.985Z,25.20
2022-10-14T13:07:38.918Z,22.15
2022-10-14T13:12:42.020Z,22.73
2022-10-14T13:17:46.660Z,22.63
2022-10-14T13:22:49.724Z,25.35
2022-10-14T13:28:24.854Z,23.10
2022-10-14T13:33:41.007Z,23.52
2022-10-14T13:38:47.766Z,22.13
2022-10-14T13:43:53.506Z,22.80
2022-10-14T13:48:58.381Z,25.65
2022-10-14T13:54:19.154Z,22.77
2022-10-14T13:59:43.355Z,24.52
2022-10-14T14:04:55.890Z,25.63
2022-10-14T14:10:02.748Z,23.70
2022-10-14T14:15:05.744Z,17.80
2022-10-14T14:20:12.038Z,24.98
2022-10-14T14:25:38.358Z,25.58
2022-10-14T14:30:54.861Z,24.80
2022-10-14T14:35:59.741Z,23.92
2022-10-14T14:41:15.977Z,24.45
2022-10-14T14:46:21.349Z,23.52
2022-10-14T14:51:24.149Z,27.13
2022-10-14T14:56:30.127Z,25.30
2022-10-14T15:01:32.395Z,26.38
2022-10-14T15:06:35.703Z,22.15
2022-10-14T15:11:52.486Z,24.58
2022-10-14T15:16:54.834Z,24.08
2022-10-14T15:22:24.087Z,30.02
2022-10-14T15:27:38.325Z,30.30
2022-10-14T15:32:41.210Z,25.45
2022-10-14T15:37:43.673Z,28.48
2022-10-14T15:42:47.627Z,33.33
2022-10-14T15:53:04.529Z,30.73
2022-10-14T15:58:06.993Z,36.22
2022-10-14T16:03:10.873Z,38.58
2022-10-14T16:08:14.786Z,36.17
2022-10-14T16:13:17.243Z,39.25
2022-10-14T16:18:21.615Z,34.03
2022-10-14T16:23:31.017Z,24.52
2022-10-14T16:28:36.494Z,31.77
2022-10-14T16:33:40.524Z,28.38
2022-10-14T16:38:45.771Z,26.67
2022-10-14T16:43:48.350Z,27.08
2022-10-14T16:48:54.290Z,30.38
2022-10-14T16:53:56.648Z,32.08
2022-10-14T16:58:59.864Z,30.88
2022-10-14T17:04:02.265Z,30.38
2022-10-14T17:09:05.206Z,35.70
2022-10-14T17:14:07.776Z,32.50
2022-10-14T17:19:11.295Z,31.33
2022-10-14T17:24:17.126Z,33.55
2022-10-14T17:29:20.616Z,36.83
2022-10-14T17:34:25.374Z,33.55
2022-10-14T17:39:29.460Z,34.67
2022-10-14T17:44:32.842Z,34.00
2022-10-14T17:49:36.431Z,34.97
2022-10-14T17:54:38.780Z,33.92
2022-10-14T17:59:41.158Z,36.45
2022-10-14T18:04:43.512Z,36.97
2022-10-14T18:09:46.407Z,35.22
2022-10-14T18:14:48.758Z,39.38
2022-10-14T18:19:52.377Z,45.30
2022-10-14T18:24:55.048Z,38.00
2022-10-14T18:29:57.985Z,40.45
2022-10-14T18:35:00.244Z,41.28
2022-10-14T18:40:02.571Z,41.78
2022-10-14T18:45:05.158Z,42.17
2022-10-14T18:50:07.746Z,42.67
2022-10-14T18:55:10.236Z,43.13
2022-10-14T19:00:14.315Z,43.80
2022-10-14T19:05:17.210Z,45.90
2022-10-14T19:10:19.574Z,46.92
2022-10-14T19:15:26.595Z,47.33
2022-10-14T19:20:29.016Z,49.33
2022-10-14T19:25:32.448Z,45.72
2022-10-14T19:30:34.762Z,46.13
2022-10-14T19:35:37.074Z,47.03
2022-10-14T19:40:39.557Z,48.50
2022-10-14T19:45:43.062Z,50.28
2022-10-14T19:50:47.063Z,51.35
2022-10-14T19:55:49.391Z,48.10
2022-10-14T20:00:52.174Z,52.30
2022-10-14T20:06:01.781Z,51.67
2022-10-14T20:11:06.117Z,48.97
2022-10-14T20:16:12.074Z,48.30
2022-10-14T20:21:16.155Z,48.38
2022-10-14T20:26:21.247Z,50.67
2022-10-14T20:31:25.513Z,51.47
2022-10-14T20:36:28.062Z,51.20
2022-10-14T20:41:30.383Z,52.03
2022-10-14T20:46:32.757Z,47.85
2022-10-14T20:51:35.234Z,52.42
2022-10-14T20:56:38.054Z,57.63
2022-10-14T21:01:40.624Z,51.45
2022-10-14T21:06:43.270Z,54.53
2022-10-14T21:11:46.618Z,64.13
2022-10-14T21:16:48.939Z,54.65
2022-10-14T21:21:51.276Z,60.85
2022-10-14T21:26:53.903Z,58.42
2022-10-14T21:31:56.265Z,57.45
2022-10-14T21:36:58.624Z,52.95
2022-10-14T21:42:00.943Z,52.13
2022-10-14T21:47:03.486Z,55.72
2022-10-14T21:52:05.892Z,52.90
2022-10-14T21:57:08.182Z,49.47
2022-10-14T22:02:10.434Z,54.90
2022-10-14T22:07:12.988Z,56.22
2022-10-14T22:12:16.581Z,51.30
2022-10-14T22:17:18.972Z,48.97
2022-10-14T22:22:21.409Z,52.38
2022-10-14T22:27:24.135Z,56.38
2022-10-14T22:32:28.072Z,52.72
2022-10-14T22:37:32.140Z,57.60
2022-10-14T22:42:35.959Z,59.63
2022-10-14T22:47:40.299Z,50.03
2022-10-14T22:52:42.775Z,49.63
2022-10-14T22:57:45.063Z,48.13
2022-10-14T23:02:47.458Z,50.60
2022-10-14T23:07:49.935Z,46.55
2022-10-14T23:12:52.309Z,49.70
2022-10-14T23:17:54.628Z,51.60
2022-10-14T23:22:56.952Z,49.65
2022-10-14T23:27:59.282Z,54.00
2022-10-14T23:33:01.729Z,49.42
2022-10-14T23:38:04.471Z,54.42
2022-10-14T23:43:06.889Z,54.95
2022-10-14T23:48:09.347Z,56.90
2022-10-14T23:53:12.607Z,52.28
2022-10-14T23:58:15.154Z,50.78
